sensor_id;sensor_type;location;lat;lon;timestamp;P1;durP1;ratioP1;P2;durP2;ratioP2
10050;SDS011;5065;46.942;7.432;2024-03-02T00:01:38;2.40;;;1.80;;
10050;SDS011;5065;46.942;7.432;2024-03-02T00:04:06;3.07;;;2.50;;
10050;SDS011;5065;46.942;7.432;2024-03-02T00:06:34;2.80;;;1.90;;
10050;SDS011;5065;46.942;7.432;2024-03-02T00:09:03;1.63;;;1.43;;
10050;SDS011;5065;46.942;7.432;2024-03-02T00:11:30;2.93;;;1.83;;
10050;SDS011;5065;46.942;7.432;2024-03-02T00:14:00;2.57;;;2.37;;
10050;SDS011;5065;46.942;7.432;2024-03-02T00:16:30;4.53;;;2.87;;
10050;SDS011;5065;46.942;7.432;2024-03-02T00:19:00;2.20;;;2.00;;
10050;SDS011;5065;46.942;7.432;2024-03-02T00:21:32;3.07;;;2.00;;
10050;SDS011;5065;46.942;7.432;2024-03-02T00:24:00;2.30;;;2.03;;
10050;SDS011;5065;46.942;7.432;2024-03-02T00:26:33;5.27;;;2.03;;
10050;SDS011;5065;46.942;7.432;2024-03-02T00:29:00;2.40;;;1.80;;
10050;SDS011;5065;46.942;7.432;2024-03-02T00:31:31;2.40;;;2.00;;
10050;SDS011;5065;46.942;7.432;2024-03-02T00:33:58;2.57;;;2.07;;
10050;SDS011;5065;46.942;7.432;2024-03-02T00:36:29;3.25;;;2.38;;
10050;SDS011;5065;46.942;7.432;2024-03-02T00:38:57;2.00;;;1.80;;
10050;SDS011;5065;46.942;7.432;2024-03-02T00:41:25;2.63;;;1.67;;
10050;SDS011;5065;46.942;7.432;2024-03-02T00:43:57;2.60;;;1.90;;
10050;SDS011;5065;46.942;7.432;2024-03-02T00:46:26;2.40;;;2.00;;
10050;SDS011;5065;46.942;7.432;2024-03-02T00:48:57;2.20;;;1.90;;
10050;SDS011;5065;46.942;7.432;2024-03-02T00:51:26;2.27;;;2.07;;
10050;SDS011;5065;46.942;7.432;2024-03-02T00:53:55;2.30;;;2.10;;
10050;SDS011;5065;46.942;7.432;2024-03-02T00:56:25;4.38;;;3.00;;
10050;SDS011;5065;46.942;7.432;2024-03-02T00:58:52;7.35;;;3.45;;
10050;SDS011;5065;46.942;7.432;2024-03-02T01:01:19;3.83;;;3.35;;
10050;SDS011;5065;46.942;7.432;2024-03-02T01:03:46;4.78;;;3.80;;
10050;SDS011;5065;46.942;7.432;2024-03-02T01:06:15;5.35;;;3.97;;
10050;SDS011;5065;46.942;7.432;2024-03-02T01:08:43;6.82;;;4.40;;
10050;SDS011;5065;46.942;7.432;2024-03-02T01:11:11;4.97;;;4.47;;
10050;SDS011;5065;46.942;7.432;2024-03-02T01:13:38;5.68;;;4.43;;
10050;SDS011;5065;46.942;7.432;2024-03-02T01:16:05;5.05;;;4.10;;
10050;SDS011;5065;46.942;7.432;2024-03-02T01:18:33;6.30;;;3.90;;
10050;SDS011;5065;46.942;7.432;2024-03-02T01:21:00;6.93;;;3.90;;
10050;SDS011;5065;46.942;7.432;2024-03-02T01:23:28;5.20;;;3.85;;
10050;SDS011;5065;46.942;7.432;2024-03-02T01:25:55;5.05;;;4.25;;
10050;SDS011;5065;46.942;7.432;2024-03-02T01:28:22;5.05;;;4.28;;
10050;SDS011;5065;46.942;7.432;2024-03-02T01:30:49;4.57;;;3.70;;
10050;SDS011;5065;46.942;7.432;2024-03-02T01:33:17;6.93;;;3.83;;
10050;SDS011;5065;46.942;7.432;2024-03-02T01:35:45;4.60;;;3.50;;
10050;SDS011;5065;46.942;7.432;2024-03-02T01:38:12;7.57;;;4.07;;
10050;SDS011;5065;46.942;7.432;2024-03-02T01:40:41;5.40;;;3.65;;
10050;SDS011;5065;46.942;7.432;2024-03-02T01:43:09;4.50;;;3.57;;
10050;SDS011;5065;46.942;7.432;2024-03-02T01:45:37;4.57;;;3.72;;
10050;SDS011;5065;46.942;7.432;2024-03-02T01:48:04;4.43;;;3.95;;
10050;SDS011;5065;46.942;7.432;2024-03-02T01:50:33;4.50;;;4.03;;
10050;SDS011;5065;46.942;7.432;2024-03-02T01:53:01;4.43;;;3.90;;
10050;SDS011;5065;46.942;7.432;2024-03-02T01:55:29;4.40;;;4.00;;
10050;SDS011;5065;46.942;7.432;2024-03-02T01:57:56;4.05;;;3.65;;
10050;SDS011;5065;46.942;7.432;2024-03-02T02:00:24;4.60;;;3.70;;
10050;SDS011;5065;46.942;7.432;2024-03-02T02:02:51;3.75;;;3.38;;
10050;SDS011;5065;46.942;7.432;2024-03-02T02:05:19;4.53;;;3.53;;
10050;SDS011;5065;46.942;7.432;2024-03-02T02:07:46;3.92;;;3.35;;
10050;SDS011;5065;46.942;7.432;2024-03-02T02:10:14;4.22;;;3.58;;
10050;SDS011;5065;46.942;7.432;2024-03-02T02:12:41;4.10;;;3.47;;
10050;SDS011;5065;46.942;7.432;2024-03-02T02:17:55;4.75;;;3.80;;
10050;SDS011;5065;46.942;7.432;2024-03-02T02:20:23;6.45;;;4.05;;
10050;SDS011;5065;46.942;7.432;2024-03-02T02:22:56;5.85;;;3.95;;
10050;SDS011;5065;46.942;7.432;2024-03-02T02:25:23;4.53;;;4.00;;
10050;SDS011;5065;46.942;7.432;2024-03-02T02:27:51;6.05;;;4.20;;
10050;SDS011;5065;46.942;7.432;2024-03-02T02:30:18;5.78;;;4.18;;
10050;SDS011;5065;46.942;7.432;2024-03-02T02:32:49;5.75;;;4.22;;
10050;SDS011;5065;46.942;7.432;2024-03-02T02:35:16;4.60;;;4.03;;
10050;SDS011;5065;46.942;7.432;2024-03-02T02:37:44;5.88;;;3.75;;
10050;SDS011;5065;46.942;7.432;2024-03-02T02:40:13;4.45;;;4.05;;
10050;SDS011;5065;46.942;7.432;2024-03-02T02:42:41;4.43;;;3.78;;
10050;SDS011;5065;46.942;7.432;2024-03-02T02:45:08;4.38;;;3.90;;
10050;SDS011;5065;46.942;7.432;2024-03-02T02:47:36;4.63;;;3.80;;
10050;SDS011;5065;46.942;7.432;2024-03-02T02:50:03;3.75;;;3.35;;
10050;SDS011;5065;46.942;7.432;2024-03-02T02:52:35;3.45;;;3.15;;
10050;SDS011;5065;46.942;7.432;2024-03-02T02:55:05;4.50;;;3.50;;
10050;SDS011;5065;46.942;7.432;2024-03-02T02:57:34;4.13;;;3.30;;
10050;SDS011;5065;46.942;7.432;2024-03-02T03:00:04;4.57;;;3.35;;
10050;SDS011;5065;46.942;7.432;2024-03-02T03:02:39;4.20;;;3.30;;
10050;SDS011;5065;46.942;7.432;2024-03-02T03:05:07;4.38;;;2.97;;
10050;SDS011;5065;46.942;7.432;2024-03-02T03:07:35;4.93;;;3.33;;
10050;SDS011;5065;46.942;7.432;2024-03-02T03:10:02;4.10;;;3.20;;
10050;SDS011;5065;46.942;7.432;2024-03-02T03:12:31;3.30;;;3.00;;
10050;SDS011;5065;46.942;7.432;2024-03-02T03:15:00;3.28;;;2.78;;
10050;SDS011;5065;46.942;7.432;2024-03-02T03:17:29;4.47;;;3.05;;
10050;SDS011;5065;46.942;7.432;2024-03-02T03:19:56;3.30;;;2.80;;
10050;SDS011;5065;46.942;7.432;2024-03-02T03:22:23;3.97;;;3.35;;
10050;SDS011;5065;46.942;7.432;2024-03-02T03:24:50;3.92;;;3.20;;
10050;SDS011;5065;46.942;7.432;2024-03-02T03:27:21;3.78;;;3.35;;
10050;SDS011;5065;46.942;7.432;2024-03-02T03:29:48;5.55;;;3.30;;
10050;SDS011;5065;46.942;7.432;2024-03-02T03:32:16;3.27;;;2.93;;
10050;SDS011;5065;46.942;7.432;2024-03-02T03:34:43;3.40;;;3.10;;
10050;SDS011;5065;46.942;7.432;2024-03-02T03:37:10;6.73;;;3.77;;
10050;SDS011;5065;46.942;7.432;2024-03-02T03:39:37;5.88;;;3.70;;
10050;SDS011;5065;46.942;7.432;2024-03-02T03:42:05;4.20;;;3.38;;
10050;SDS011;5065;46.942;7.432;2024-03-02T03:44:32;3.63;;;3.05;;
10050;SDS011;5065;46.942;7.432;2024-03-02T03:47:01;4.10;;;3.45;;
10050;SDS011;5065;46.942;7.432;2024-03-02T03:49:29;4.07;;;3.17;;
10050;SDS011;5065;46.942;7.432;2024-03-02T03:51:56;3.30;;;2.87;;
10050;SDS011;5065;46.942;7.432;2024-03-02T03:54:26;4.30;;;2.88;;
10050;SDS011;5065;46.942;7.432;2024-03-02T03:56:54;4.00;;;2.92;;
10050;SDS011;5065;46.942;7.432;2024-03-02T03:59:21;4.70;;;3.27;;
10050;SDS011;5065;46.942;7.432;2024-03-02T04:01:49;3.70;;;2.92;;
10050;SDS011;5065;46.942;7.432;2024-03-02T04:04:16;3.77;;;3.20;;
10050;SDS011;5065;46.942;7.432;2024-03-02T04:06:44;3.55;;;3.03;;
10050;SDS011;5065;46.942;7.432;2024-03-02T04:09:11;3.13;;;2.78;;
10050;SDS011;5065;46.942;7.432;2024-03-02T04:11:38;4.57;;;3.23;;
10050;SDS011;5065;46.942;7.432;2024-03-02T04:14:06;4.15;;;3.03;;
10050;SDS011;5065;46.942;7.432;2024-03-02T04:16:33;4.72;;;3.17;;
10050;SDS011;5065;46.942;7.432;2024-03-02T04:19:00;4.20;;;3.40;;
10050;SDS011;5065;46.942;7.432;2024-03-02T04:21:27;4.00;;;3.20;;
10050;SDS011;5065;46.942;7.432;2024-03-02T04:23:55;3.92;;;3.00;;
10050;SDS011;5065;46.942;7.432;2024-03-02T04:26:24;2.95;;;2.65;;
10050;SDS011;5065;46.942;7.432;2024-03-02T04:28:51;7.63;;;3.10;;
10050;SDS011;5065;46.942;7.432;2024-03-02T04:31:19;6.13;;;2.88;;
10050;SDS011;5065;46.942;7.432;2024-03-02T04:33:46;3.47;;;2.97;;
10050;SDS011;5065;46.942;7.432;2024-03-02T04:36:13;3.92;;;3.05;;
10050;SDS011;5065;46.942;7.432;2024-03-02T04:38:41;3.65;;;3.30;;
10050;SDS011;5065;46.942;7.432;2024-03-02T04:41:10;4.10;;;3.30;;
10050;SDS011;5065;46.942;7.432;2024-03-02T04:43:37;4.22;;;3.53;;
10050;SDS011;5065;46.942;7.432;2024-03-02T04:46:04;3.63;;;3.33;;
10050;SDS011;5065;46.942;7.432;2024-03-02T04:48:32;4.25;;;3.53;;
10050;SDS011;5065;46.942;7.432;2024-03-02T04:50:59;5.10;;;3.63;;
10050;SDS011;5065;46.942;7.432;2024-03-02T04:53:26;5.63;;;3.15;;
10050;SDS011;5065;46.942;7.432;2024-03-02T04:55:53;4.30;;;3.00;;
10050;SDS011;5065;46.942;7.432;2024-03-02T04:58:39;4.47;;;3.55;;
10050;SDS011;5065;46.942;7.432;2024-03-02T05:01:06;4.10;;;3.45;;
10050;SDS011;5065;46.942;7.432;2024-03-02T05:03:33;3.37;;;3.07;;
10050;SDS011;5065;46.942;7.432;2024-03-02T05:06:00;3.83;;;3.38;;
10050;SDS011;5065;46.942;7.432;2024-03-02T05:08:28;3.60;;;3.30;;
10050;SDS011;5065;46.942;7.432;2024-03-02T05:10:55;4.28;;;3.20;;
10050;SDS011;5065;46.942;7.432;2024-03-02T05:13:44;4.30;;;3.90;;
10050;SDS011;5065;46.942;7.432;2024-03-02T05:16:10;5.05;;;3.60;;
10050;SDS011;5065;46.942;7.432;2024-03-02T05:18:37;4.45;;;3.47;;
10050;SDS011;5065;46.942;7.432;2024-03-02T05:21:04;3.97;;;3.42;;
10050;SDS011;5065;46.942;7.432;2024-03-02T05:23:32;3.47;;;3.05;;
10050;SDS011;5065;46.942;7.432;2024-03-02T05:25:59;4.75;;;3.38;;
10050;SDS011;5065;46.942;7.432;2024-03-02T05:28:26;3.83;;;3.30;;
10050;SDS011;5065;46.942;7.432;2024-03-02T05:30:55;5.05;;;3.33;;
10050;SDS011;5065;46.942;7.432;2024-03-02T05:33:24;3.50;;;3.20;;
10050;SDS011;5065;46.942;7.432;2024-03-02T05:35:51;4.68;;;3.42;;
10050;SDS011;5065;46.942;7.432;2024-03-02T05:38:18;3.95;;;3.33;;
10050;SDS011;5065;46.942;7.432;2024-03-02T05:40:47;4.55;;;3.40;;
10050;SDS011;5065;46.942;7.432;2024-03-02T05:43:14;3.77;;;3.37;;
10050;SDS011;5065;46.942;7.432;2024-03-02T05:45:41;4.72;;;3.53;;
10050;SDS011;5065;46.942;7.432;2024-03-02T05:48:09;3.90;;;3.22;;
10050;SDS011;5065;46.942;7.432;2024-03-02T05:50:36;4.30;;;3.47;;
10050;SDS011;5065;46.942;7.432;2024-03-02T05:53:03;3.70;;;3.40;;
10050;SDS011;5065;46.942;7.432;2024-03-02T05:55:30;4.07;;;3.53;;
10050;SDS011;5065;46.942;7.432;2024-03-02T05:57:57;3.70;;;3.20;;
10050;SDS011;5065;46.942;7.432;2024-03-02T06:00:40;4.70;;;3.40;;
10050;SDS011;5065;46.942;7.432;2024-03-02T06:03:09;4.05;;;3.38;;
10050;SDS011;5065;46.942;7.432;2024-03-02T06:05:37;3.67;;;3.28;;
10050;SDS011;5065;46.942;7.432;2024-03-02T06:08:06;3.60;;;3.25;;
10050;SDS011;5065;46.942;7.432;2024-03-02T06:10:33;4.03;;;3.22;;
10050;SDS011;5065;46.942;7.432;2024-03-02T06:13:00;4.70;;;3.60;;
10050;SDS011;5065;46.942;7.432;2024-03-02T06:15:27;3.30;;;3.00;;
10050;SDS011;5065;46.942;7.432;2024-03-02T06:17:54;5.03;;;3.38;;
10050;SDS011;5065;46.942;7.432;2024-03-02T06:20:23;4.00;;;3.33;;
10050;SDS011;5065;46.942;7.432;2024-03-02T06:22:51;3.58;;;2.90;;
10050;SDS011;5065;46.942;7.432;2024-03-02T06:25:18;2.78;;;2.55;;
10050;SDS011;5065;46.942;7.432;2024-03-02T06:27:46;3.38;;;2.63;;
10050;SDS011;5065;46.942;7.432;2024-03-02T06:30:13;3.95;;;3.33;;
10050;SDS011;5065;46.942;7.432;2024-03-02T06:32:40;4.40;;;3.17;;
10050;SDS011;5065;46.942;7.432;2024-03-02T06:35:07;3.67;;;3.22;;
10050;SDS011;5065;46.942;7.432;2024-03-02T06:37:37;3.03;;;2.60;;
10050;SDS011;5065;46.942;7.432;2024-03-02T06:40:06;3.17;;;2.88;;
10050;SDS011;5065;46.942;7.432;2024-03-02T06:42:34;2.88;;;2.60;;
10050;SDS011;5065;46.942;7.432;2024-03-02T06:45:01;2.72;;;2.53;;
10050;SDS011;5065;46.942;7.432;2024-03-02T06:47:29;3.30;;;2.97;;
10050;SDS011;5065;46.942;7.432;2024-03-02T06:49:56;3.60;;;2.92;;
10050;SDS011;5065;46.942;7.432;2024-03-02T06:52:23;3.42;;;3.13;;
10050;SDS011;5065;46.942;7.432;2024-03-02T06:54:52;3.05;;;2.75;;
10050;SDS011;5065;46.942;7.432;2024-03-02T06:57:19;4.20;;;3.50;;
10050;SDS011;5065;46.942;7.432;2024-03-02T06:59:46;3.80;;;3.03;;
10050;SDS011;5065;46.942;7.432;2024-03-02T07:02:15;3.80;;;3.42;;
10050;SDS011;5065;46.942;7.432;2024-03-02T07:04:42;3.53;;;3.13;;
10050;SDS011;5065;46.942;7.432;2024-03-02T07:07:10;4.65;;;2.85;;
10050;SDS011;5065;46.942;7.432;2024-03-02T07:09:37;3.95;;;3.00;;
10050;SDS011;5065;46.942;7.432;2024-03-02T07:12:06;3.50;;;2.90;;
10050;SDS011;5065;46.942;7.432;2024-03-02T07:14:34;3.43;;;2.90;;
10050;SDS011;5065;46.942;7.432;2024-03-02T07:17:19;2.67;;;2.07;;
10050;SDS011;5065;46.942;7.432;2024-03-02T07:19:46;2.60;;;2.17;;
10050;SDS011;5065;46.942;7.432;2024-03-02T07:22:13;7.67;;;4.70;;
10050;SDS011;5065;46.942;7.432;2024-03-02T07:24:40;3.23;;;2.67;;
10050;SDS011;5065;46.942;7.432;2024-03-02T07:27:09;2.63;;;2.00;;
10050;SDS011;5065;46.942;7.432;2024-03-02T07:29:37;2.53;;;2.00;;
10050;SDS011;5065;46.942;7.432;2024-03-02T07:32:05;2.17;;;1.90;;
10050;SDS011;5065;46.942;7.432;2024-03-02T07:34:33;2.17;;;1.97;;
10050;SDS011;5065;46.942;7.432;2024-03-02T07:37:00;3.30;;;2.37;;
10050;SDS011;5065;46.942;7.432;2024-03-02T07:39:27;2.07;;;1.80;;
10050;SDS011;5065;46.942;7.432;2024-03-02T07:41:55;2.03;;;1.83;;
10050;SDS011;5065;46.942;7.432;2024-03-02T07:44:26;2.83;;;2.50;;
10050;SDS011;5065;46.942;7.432;2024-03-02T07:46:53;2.30;;;1.90;;
10050;SDS011;5065;46.942;7.432;2024-03-02T07:49:20;3.87;;;2.57;;
10050;SDS011;5065;46.942;7.432;2024-03-02T07:51:48;2.27;;;2.07;;
10050;SDS011;5065;46.942;7.432;2024-03-02T07:54:15;3.50;;;2.17;;
10050;SDS011;5065;46.942;7.432;2024-03-02T07:56:42;3.03;;;2.73;;
10050;SDS011;5065;46.942;7.432;2024-03-02T07:59:09;3.37;;;2.33;;
10050;SDS011;5065;46.942;7.432;2024-03-02T08:01:37;5.20;;;3.10;;
10050;SDS011;5065;46.942;7.432;2024-03-02T08:04:04;2.87;;;2.57;;
10050;SDS011;5065;46.942;7.432;2024-03-02T08:06:32;2.50;;;2.30;;
10050;SDS011;5065;46.942;7.432;2024-03-02T08:09:00;4.07;;;2.43;;
10050;SDS011;5065;46.942;7.432;2024-03-02T08:11:29;4.00;;;2.90;;
10050;SDS011;5065;46.942;7.432;2024-03-02T08:13:57;2.60;;;2.23;;
10050;SDS011;5065;46.942;7.432;2024-03-02T08:16:24;2.80;;;2.33;;
10050;SDS011;5065;46.942;7.432;2024-03-02T08:18:52;2.40;;;2.20;;
10050;SDS011;5065;46.942;7.432;2024-03-02T08:21:22;3.00;;;2.27;;
10050;SDS011;5065;46.942;7.432;2024-03-02T08:23:50;2.67;;;2.00;;
10050;SDS011;5065;46.942;7.432;2024-03-02T08:26:17;3.03;;;2.20;;
10050;SDS011;5065;46.942;7.432;2024-03-02T08:28:44;2.17;;;1.97;;
10050;SDS011;5065;46.942;7.432;2024-03-02T08:31:11;4.07;;;2.50;;
10050;SDS011;5065;46.942;7.432;2024-03-02T08:33:38;2.07;;;1.87;;
10050;SDS011;5065;46.942;7.432;2024-03-02T08:36:07;2.83;;;2.30;;
10050;SDS011;5065;46.942;7.432;2024-03-02T08:38:35;2.87;;;2.20;;
10050;SDS011;5065;46.942;7.432;2024-03-02T08:41:02;2.60;;;1.87;;
10050;SDS011;5065;46.942;7.432;2024-03-02T08:43:29;2.00;;;1.80;;
10050;SDS011;5065;46.942;7.432;2024-03-02T08:45:57;2.37;;;1.60;;
10050;SDS011;5065;46.942;7.432;2024-03-02T08:48:24;4.53;;;2.70;;
10050;SDS011;5065;46.942;7.432;2024-03-02T08:50:51;2.23;;;1.80;;
10050;SDS011;5065;46.942;7.432;2024-03-02T08:53:19;5.20;;;1.50;;
10050;SDS011;5065;46.942;7.432;2024-03-02T08:55:46;2.00;;;1.80;;
10050;SDS011;5065;46.942;7.432;2024-03-02T08:58:14;2.07;;;1.83;;
10050;SDS011;5065;46.942;7.432;2024-03-02T09:00:41;1.57;;;1.30;;
10050;SDS011;5065;46.942;7.432;2024-03-02T09:03:08;2.23;;;2.03;;
10050;SDS011;5065;46.942;7.432;2024-03-02T09:05:36;1.83;;;1.67;;
10050;SDS011;5065;46.942;7.432;2024-03-02T09:08:03;4.47;;;2.13;;
10050;SDS011;5065;46.942;7.432;2024-03-02T09:10:32;1.60;;;1.50;;
10050;SDS011;5065;46.942;7.432;2024-03-02T09:13:00;2.87;;;1.13;;
10050;SDS011;5065;46.942;7.432;2024-03-02T09:15:27;1.77;;;1.40;;
10050;SDS011;5065;46.942;7.432;2024-03-02T09:17:54;1.73;;;1.47;;
10050;SDS011;5065;46.942;7.432;2024-03-02T09:20:21;1.33;;;1.23;;
10050;SDS011;5065;46.942;7.432;2024-03-02T09:22:49;2.73;;;1.47;;
10050;SDS011;5065;46.942;7.432;2024-03-02T09:25:16;2.17;;;1.60;;
10050;SDS011;5065;46.942;7.432;2024-03-02T09:27:44;1.53;;;1.23;;
10050;SDS011;5065;46.942;7.432;2024-03-02T09:30:11;1.60;;;1.30;;
10050;SDS011;5065;46.942;7.432;2024-03-02T09:32:39;1.07;;;0.97;;
10050;SDS011;5065;46.942;7.432;2024-03-02T09:35:07;0.97;;;0.87;;
10050;SDS011;5065;46.942;7.432;2024-03-02T09:37:35;1.70;;;1.00;;
10050;SDS011;5065;46.942;7.432;2024-03-02T09:40:02;1.20;;;1.10;;
10050;SDS011;5065;46.942;7.432;2024-03-02T09:42:31;2.57;;;0.60;;
10050;SDS011;5065;46.942;7.432;2024-03-02T09:45:00;1.10;;;0.80;;
10050;SDS011;5065;46.942;7.432;2024-03-02T09:47:29;0.80;;;0.80;;
10050;SDS011;5065;46.942;7.432;2024-03-02T09:49:56;1.13;;;0.87;;
10050;SDS011;5065;46.942;7.432;2024-03-02T09:52:23;1.33;;;1.00;;
10050;SDS011;5065;46.942;7.432;2024-03-02T09:54:51;1.00;;;0.90;;
10050;SDS011;5065;46.942;7.432;2024-03-02T09:57:18;1.13;;;0.90;;
10050;SDS011;5065;46.942;7.432;2024-03-02T09:59:45;1.60;;;0.90;;
10050;SDS011;5065;46.942;7.432;2024-03-02T10:02:13;1.20;;;1.10;;
10050;SDS011;5065;46.942;7.432;2024-03-02T10:04:41;0.87;;;0.87;;
10050;SDS011;5065;46.942;7.432;2024-03-02T10:07:11;0.97;;;0.87;;
10050;SDS011;5065;46.942;7.432;2024-03-02T10:09:39;0.90;;;0.90;;
10050;SDS011;5065;46.942;7.432;2024-03-02T10:12:08;0.93;;;0.70;;
10050;SDS011;5065;46.942;7.432;2024-03-02T10:14:37;0.80;;;0.70;;
10050;SDS011;5065;46.942;7.432;2024-03-02T10:17:05;0.80;;;0.80;;
10050;SDS011;5065;46.942;7.432;2024-03-02T10:19:34;0.97;;;0.63;;
10050;SDS011;5065;46.942;7.432;2024-03-02T10:22:03;1.07;;;0.90;;
10050;SDS011;5065;46.942;7.432;2024-03-02T10:24:35;0.60;;;0.60;;
10050;SDS011;5065;46.942;7.432;2024-03-02T10:27:06;0.90;;;0.77;;
10050;SDS011;5065;46.942;7.432;2024-03-02T10:29:38;1.30;;;1.10;;
10050;SDS011;5065;46.942;7.432;2024-03-02T10:32:07;1.50;;;1.40;;
10050;SDS011;5065;46.942;7.432;2024-03-02T10:34:37;1.50;;;1.37;;
10050;SDS011;5065;46.942;7.432;2024-03-02T10:37:06;1.50;;;1.10;;
10050;SDS011;5065;46.942;7.432;2024-03-02T10:39:34;1.33;;;1.23;;
10050;SDS011;5065;46.942;7.432;2024-03-02T10:42:02;2.53;;;1.33;;
10050;SDS011;5065;46.942;7.432;2024-03-02T10:44:31;2.80;;;1.30;;
10050;SDS011;5065;46.942;7.432;2024-03-02T10:46:59;1.30;;;1.20;;
10050;SDS011;5065;46.942;7.432;2024-03-02T10:49:29;1.63;;;1.33;;
10050;SDS011;5065;46.942;7.432;2024-03-02T10:51:58;2.50;;;1.50;;
10050;SDS011;5065;46.942;7.432;2024-03-02T10:54:26;1.23;;;1.00;;
10050;SDS011;5065;46.942;7.432;2024-03-02T10:56:55;1.40;;;1.17;;
10050;SDS011;5065;46.942;7.432;2024-03-02T10:59:28;1.63;;;1.20;;
10050;SDS011;5065;46.942;7.432;2024-03-02T11:02:00;2.80;;;1.40;;
10050;SDS011;5065;46.942;7.432;2024-03-02T11:04:29;6.00;;;1.20;;
10050;SDS011;5065;46.942;7.432;2024-03-02T11:07:02;1.27;;;1.07;;
10050;SDS011;5065;46.942;7.432;2024-03-02T11:09:32;1.20;;;1.03;;
10050;SDS011;5065;46.942;7.432;2024-03-02T11:12:02;1.03;;;0.90;;
10050;SDS011;5065;46.942;7.432;2024-03-02T11:14:32;1.40;;;1.30;;
10050;SDS011;5065;46.942;7.432;2024-03-02T11:17:02;1.50;;;1.40;;
10050;SDS011;5065;46.942;7.432;2024-03-02T11:19:31;1.30;;;1.10;;
10050;SDS011;5065;46.942;7.432;2024-03-02T11:22:00;1.37;;;1.27;;
10050;SDS011;5065;46.942;7.432;2024-03-02T11:24:30;1.87;;;1.27;;
10050;SDS011;5065;46.942;7.432;2024-03-02T11:26:59;1.63;;;1.00;;
10050;SDS011;5065;46.942;7.432;2024-03-02T11:32:18;0.90;;;0.90;;
10050;SDS011;5065;46.942;7.432;2024-03-02T11:34:49;1.30;;;1.20;;
10050;SDS011;5065;46.942;7.432;2024-03-02T11:37:18;0.70;;;0.70;;
10050;SDS011;5065;46.942;7.432;2024-03-02T11:39:46;1.33;;;1.23;;
10050;SDS011;5065;46.942;7.432;2024-03-02T11:42:15;1.33;;;1.00;;
10050;SDS011;5065;46.942;7.432;2024-03-02T11:44:44;1.87;;;1.50;;
10050;SDS011;5065;46.942;7.432;2024-03-02T11:47:13;1.07;;;1.00;;
10050;SDS011;5065;46.942;7.432;2024-03-02T11:49:42;1.47;;;1.07;;
10050;SDS011;5065;46.942;7.432;2024-03-02T11:52:10;3.97;;;2.73;;
10050;SDS011;5065;46.942;7.432;2024-03-02T11:54:41;2.53;;;1.47;;
10050;SDS011;5065;46.942;7.432;2024-03-02T11:57:12;1.17;;;0.83;;
10050;SDS011;5065;46.942;7.432;2024-03-02T11:59:41;0.70;;;0.70;;
10050;SDS011;5065;46.942;7.432;2024-03-02T12:02:12;1.17;;;1.07;;
10050;SDS011;5065;46.942;7.432;2024-03-02T12:04:42;1.20;;;1.10;;
10050;SDS011;5065;46.942;7.432;2024-03-02T12:07:10;0.97;;;0.73;;
10050;SDS011;5065;46.942;7.432;2024-03-02T12:09:39;1.67;;;1.27;;
10050;SDS011;5065;46.942;7.432;2024-03-02T12:12:07;1.97;;;1.20;;
10050;SDS011;5065;46.942;7.432;2024-03-02T12:14:36;1.10;;;1.00;;
10050;SDS011;5065;46.942;7.432;2024-03-02T12:17:04;1.27;;;1.00;;
10050;SDS011;5065;46.942;7.432;2024-03-02T12:19:32;1.83;;;1.30;;
10050;SDS011;5065;46.942;7.432;2024-03-02T12:22:00;1.10;;;0.93;;
10050;SDS011;5065;46.942;7.432;2024-03-02T12:24:28;1.30;;;0.93;;
10050;SDS011;5065;46.942;7.432;2024-03-02T12:26:57;1.30;;;1.07;;
10050;SDS011;5065;46.942;7.432;2024-03-02T12:29:25;2.20;;;1.40;;
10050;SDS011;5065;46.942;7.432;2024-03-02T12:31:52;1.17;;;1.10;;
10050;SDS011;5065;46.942;7.432;2024-03-02T12:34:20;1.23;;;1.10;;
10050;SDS011;5065;46.942;7.432;2024-03-02T12:36:48;1.53;;;1.20;;
10050;SDS011;5065;46.942;7.432;2024-03-02T12:39:18;2.00;;;1.27;;
10050;SDS011;5065;46.942;7.432;2024-03-02T12:41:46;1.50;;;1.23;;
10050;SDS011;5065;46.942;7.432;2024-03-02T12:44:17;1.33;;;1.00;;
10050;SDS011;5065;46.942;7.432;2024-03-02T12:46:44;1.13;;;1.00;;
10050;SDS011;5065;46.942;7.432;2024-03-02T12:49:12;1.37;;;1.27;;
10050;SDS011;5065;46.942;7.432;2024-03-02T12:51:41;5.80;;;1.40;;
10050;SDS011;5065;46.942;7.432;2024-03-02T12:54:10;1.70;;;1.40;;
10050;SDS011;5065;46.942;7.432;2024-03-02T12:56:38;1.43;;;1.33;;
10050;SDS011;5065;46.942;7.432;2024-03-02T12:59:10;1.53;;;1.40;;
10050;SDS011;5065;46.942;7.432;2024-03-02T13:01:52;1.30;;;1.20;;
10050;SDS011;5065;46.942;7.432;2024-03-02T13:04:23;1.40;;;1.27;;
10050;SDS011;5065;46.942;7.432;2024-03-02T13:06:54;1.63;;;1.40;;
10050;SDS011;5065;46.942;7.432;2024-03-02T13:09:22;1.47;;;1.30;;
10050;SDS011;5065;46.942;7.432;2024-03-02T13:11:50;2.77;;;1.40;;
10050;SDS011;5065;46.942;7.432;2024-03-02T13:14:21;1.97;;;1.57;;
10050;SDS011;5065;46.942;7.432;2024-03-02T13:16:50;1.20;;;1.10;;
10050;SDS011;5065;46.942;7.432;2024-03-02T13:19:17;1.60;;;1.30;;
10050;SDS011;5065;46.942;7.432;2024-03-02T13:21:45;3.30;;;2.17;;
10050;SDS011;5065;46.942;7.432;2024-03-02T13:24:12;1.40;;;1.30;;
10050;SDS011;5065;46.942;7.432;2024-03-02T13:26:39;1.83;;;1.67;;
10050;SDS011;5065;46.942;7.432;2024-03-02T13:29:06;1.80;;;1.70;;
10050;SDS011;5065;46.942;7.432;2024-03-02T13:31:35;2.10;;;1.77;;
10050;SDS011;5065;46.942;7.432;2024-03-02T13:34:02;2.60;;;2.00;;
10050;SDS011;5065;46.942;7.432;2024-03-02T13:36:29;3.10;;;2.80;;
10050;SDS011;5065;46.942;7.432;2024-03-02T13:38:56;2.50;;;1.87;;
10050;SDS011;5065;46.942;7.432;2024-03-02T13:41:24;3.13;;;2.20;;
10050;SDS011;5065;46.942;7.432;2024-03-02T13:43:51;2.40;;;2.20;;
10050;SDS011;5065;46.942;7.432;2024-03-02T13:46:18;2.20;;;1.83;;
10050;SDS011;5065;46.942;7.432;2024-03-02T13:48:48;2.27;;;1.93;;
10050;SDS011;5065;46.942;7.432;2024-03-02T13:51:16;2.27;;;1.93;;
10050;SDS011;5065;46.942;7.432;2024-03-02T13:53:43;2.00;;;1.77;;
10050;SDS011;5065;46.942;7.432;2024-03-02T13:56:11;3.90;;;2.30;;
10050;SDS011;5065;46.942;7.432;2024-03-02T13:58:40;1.67;;;1.53;;
10050;SDS011;5065;46.942;7.432;2024-03-02T14:01:11;4.00;;;2.00;;
10050;SDS011;5065;46.942;7.432;2024-03-02T14:03:38;1.97;;;1.77;;
10050;SDS011;5065;46.942;7.432;2024-03-02T14:06:06;1.93;;;1.70;;
10050;SDS011;5065;46.942;7.432;2024-03-02T14:08:34;1.97;;;1.60;;
10050;SDS011;5065;46.942;7.432;2024-03-02T14:11:01;3.00;;;2.10;;
10050;SDS011;5065;46.942;7.432;2024-03-02T14:13:28;1.53;;;1.40;;
10050;SDS011;5065;46.942;7.432;2024-03-02T14:15:55;1.80;;;1.60;;
10050;SDS011;5065;46.942;7.432;2024-03-02T14:18:23;1.93;;;1.70;;
10050;SDS011;5065;46.942;7.432;2024-03-02T14:20:50;2.20;;;1.80;;
10050;SDS011;5065;46.942;7.432;2024-03-02T14:23:19;2.33;;;1.80;;
10050;SDS011;5065;46.942;7.432;2024-03-02T14:25:46;2.10;;;1.90;;
10050;SDS011;5065;46.942;7.432;2024-03-02T14:28:13;2.47;;;1.90;;
10050;SDS011;5065;46.942;7.432;2024-03-02T14:30:41;5.47;;;2.13;;
10050;SDS011;5065;46.942;7.432;2024-03-02T14:33:08;5.00;;;2.13;;
10050;SDS011;5065;46.942;7.432;2024-03-02T14:35:36;2.07;;;1.70;;
10050;SDS011;5065;46.942;7.432;2024-03-02T14:38:03;1.60;;;1.50;;
10050;SDS011;5065;46.942;7.432;2024-03-02T14:40:32;1.67;;;1.57;;
10050;SDS011;5065;46.942;7.432;2024-03-02T14:42:59;2.27;;;1.70;;
10050;SDS011;5065;46.942;7.432;2024-03-02T14:45:26;1.50;;;1.23;;
10050;SDS011;5065;46.942;7.432;2024-03-02T14:47:53;3.10;;;2.60;;
10050;SDS011;5065;46.942;7.432;2024-03-02T14:50:21;2.50;;;1.80;;
10050;SDS011;5065;46.942;7.432;2024-03-02T14:52:48;3.77;;;2.43;;
10050;SDS011;5065;46.942;7.432;2024-03-02T14:55:15;2.63;;;2.23;;
10050;SDS011;5065;46.942;7.432;2024-03-02T14:57:44;4.03;;;2.30;;
10050;SDS011;5065;46.942;7.432;2024-03-02T15:00:11;3.07;;;2.20;;
10050;SDS011;5065;46.942;7.432;2024-03-02T15:02:38;3.40;;;2.40;;
10050;SDS011;5065;46.942;7.432;2024-03-02T15:05:06;2.60;;;1.83;;
10050;SDS011;5065;46.942;7.432;2024-03-02T15:07:33;7.43;;;4.43;;
10050;SDS011;5065;46.942;7.432;2024-03-02T15:10:01;4.43;;;2.53;;
10050;SDS011;5065;46.942;7.432;2024-03-02T15:12:29;4.03;;;2.90;;